Time;durP1;ratioP1;P1;durP2;ratioP2;P2;SDS_P1;SDS_P2;PMS_P1;PMS_P2;Temp;Humidity;BMP_temperature;BMP_pressure;BME280_temperature;BME280_humidity;BME280_pressure;Samples;Min_cycle;Max_cycle;Signal;HPM_P1;HPM_P2
2023/10/28 00:00:48;;;;;;;2.42;0.95;;;11.80;99.90;;;;;;5019879;28;20045;-81
2023/10/28 00:03:15;;;;;;;6.57;1.20;;;11.80;99.90;;;;;;5004037;28;20051;-80
2023/10/28 00:05:42;;;;;;;5.30;1.13;;;11.70;99.90;;;;;;5011283;28;20116;-82
2023/10/28 00:08:09;;;;;;;2.83;1.10;;;11.80;99.90;;;;;;5010044;28;20497;-82
2023/10/28 00:10:36;;;;;;;3.63;0.80;;;11.80;99.90;;;;;;5005392;28;20081;-81
2023/10/28 00:13:06;;;;;;;4.97;1.10;;;11.80;99.90;;;;;;5004788;28;20050;-81
2023/10/28 00:15:33;;;;;;;;;;;11.80;99.90;;;;;;5006821;28;20070;-81
2023/10/28 00:18:00;;;;;;;4.85;1.15;;;11.90;99.90;;;;;;5002593;28;19955;-81
2023/10/28 00:20:29;;;;;;;5.57;1.00;;;11.90;99.90;;;;;;5010997;28;20074;-83
2023/10/28 00:22:57;;;;;;;6.90;1.20;;;11.90;99.90;;;;;;5010368;28;20042;-82
2023/10/28 00:25:25;;;;;;;2.40;1.00;;;11.90;99.90;;;;;;5001935;28;20050;-83
2023/10/28 00:27:55;;;;;;;4.32;1.00;;;11.90;99.90;;;;;;5006635;28;20050;-82
2023/10/28 00:30:23;;;;;;;2.97;0.90;;;11.90;99.90;;;;;;5006526;28;20053;-82
2023/10/28 00:32:53;;;;;;;4.57;1.48;;;11.90;99.90;;;;;;5000640;28;20042;-83
2023/10/28 00:35:23;;;;;;;6.63;1.10;;;11.90;99.90;;;;;;5005279;28;20469;-82
2023/10/28 00:37:50;;;;;;;7.32;1.15;;;11.90;99.90;;;;;;5010175;28;20096;-83
2023/10/28 00:40:17;;;;;;;5.15;1.10;;;11.90;99.90;;;;;;5004994;28;20082;-81
2023/10/28 00:42:47;;;;;;;3.70;0.88;;;11.90;99.90;;;;;;5003105;28;20082;-81
2023/10/28 00:45:15;;;;;;;6.50;1.20;;;11.90;99.90;;;;;;5005123;28;20105;-82
2023/10/28 00:47:45;;;;;;;6.45;0.90;;;11.90;99.90;;;;;;5005786;28;20049;-82
2023/10/28 00:50:14;;;;;;;4.82;0.90;;;11.90;99.90;;;;;;5005202;28;20057;-82
2023/10/28 00:52:44;;;;;;;2.63;0.73;;;12.00;99.90;;;;;;5005622;28;20050;-81
2023/10/28 00:55:12;;;;;;;5.05;0.90;;;11.90;99.90;;;;;;5004244;28;20050;-83
2023/10/28 00:57:41;;;;;;;5.40;1.30;;;11.90;99.90;;;;;;5001504;28;20050;-79
2023/10/28 01:00:08;;;;;;;2.28;0.52;;;12.00;99.90;;;;;;5005769;28;20093;-83
2023/10/28 01:02:37;;;;;;;2.75;0.70;;;11.90;99.90;;;;;;5012018;28;20073;-82
2023/10/28 01:05:06;;;;;;;2.03;0.70;;;12.00;99.90;;;;;;5009869;28;20060;-82
2023/10/28 01:07:33;;;;;;;1.58;0.60;;;12.00;99.90;;;;;;5009102;28;20085;-82
2023/10/28 01:10:00;;;;;;;8.73;2.13;;;12.00;99.90;;;;;;5008443;28;20064;-81
2023/10/28 01:12:27;;;;;;;2.13;0.88;;;12.00;99.90;;;;;;5004881;28;20057;-80
2023/10/28 01:14:53;;;;;;;7.95;1.25;;;12.00;99.90;;;;;;5002931;28;20137;-81
2023/10/28 01:17:25;;;;;;;1.27;0.80;;;12.00;99.90;;;;;;5011909;28;20049;-80
2023/10/28 01:19:53;;;;;;;3.97;0.60;;;12.00;99.90;;;;;;5012096;28;20058;-81
2023/10/28 01:22:21;;;;;;;2.47;0.80;;;12.00;99.90;;;;;;5005902;28;20133;-83
2023/10/28 01:24:49;;;;;;;3.33;1.10;;;12.00;99.90;;;;;;5003416;28;20104;-82
2023/10/28 01:27:19;;;;;;;2.83;0.85;;;12.10;99.90;;;;;;5005321;28;20477;-83
2023/10/28 01:29:46;;;;;;;4.88;0.65;;;12.10;99.90;;;;;;5007392;28;20469;-81
2023/10/28 01:32:14;;;;;;;3.10;0.75;;;12.00;99.90;;;;;;5009819;28;20057;-81
2023/10/28 01:34:53;;;;;;;1.70;0.55;;;12.00;99.90;;;;;;5004706;28;20446;-81
2023/10/28 01:37:21;;;;;;;3.25;0.60;;;12.00;99.90;;;;;;5008851;28;20050;-82
2023/10/28 01:39:50;;;;;;;2.60;0.50;;;12.00;99.90;;;;;;5006008;28;20083;-83
2023/10/28 01:42:17;;;;;;;2.30;0.60;;;12.00;99.90;;;;;;5007595;28;20492;-82
2023/10/28 01:44:45;;;;;;;1.02;0.40;;;12.00;99.90;;;;;;5013427;28;20050;-84
2023/10/28 01:47:13;;;;;;;1.00;0.60;;;12.00;99.90;;;;;;5013327;28;20540;-82
2023/10/28 01:49:42;;;;;;;2.75;0.70;;;12.00;99.90;;;;;;5004536;28;20054;-82
2023/10/28 01:52:10;;;;;;;1.77;0.70;;;12.00;99.90;;;;;;5010797;28;20058;-82
2023/10/28 01:54:37;;;;;;;4.20;0.77;;;12.00;99.90;;;;;;5005119;28;20047;-82
2023/10/28 01:57:09;;;;;;;2.80;0.65;;;12.00;99.90;;;;;;5003518;28;20069;-82
2023/10/28 01:59:38;;;;;;;2.67;0.60;;;12.00;99.90;;;;;;5012514;28;20069;-81
2023/10/28 02:02:07;;;;;;;5.38;0.60;;;12.00;99.90;;;;;;5015899;28;20046;-81
2023/10/28 02:04:34;;;;;;;5.10;1.02;;;12.00;99.90;;;;;;5005970;28;20064;-83
2023/10/28 02:07:01;;;;;;;3.50;0.80;;;12.00;99.90;;;;;;5009220;28;20555;-81
2023/10/28 02:09:28;;;;;;;1.63;0.60;;;12.00;99.90;;;;;;5008107;28;20410;-82
2023/10/28 02:11:55;;;;;;;2.28;0.98;;;11.90;99.90;;;;;;5004293;28;20730;-82
2023/10/28 02:14:24;;;;;;;3.10;0.60;;;11.90;99.90;;;;;;5011545;28;20054;-82
2023/10/28 02:16:51;;;;;;;2.55;0.60;;;11.90;99.90;;;;;;5013557;28;20053;-82
2023/10/28 02:19:20;;;;;;;2.30;0.43;;;11.90;99.90;;;;;;5004790;28;20097;-82
2023/10/28 02:21:48;;;;;;;1.95;0.63;;;11.80;99.90;;;;;;5006230;28;20050;-82
2023/10/28 02:24:25;;;;;;;1.50;0.73;;;11.80;99.90;;;;;;5005709;28;20064;-82
2023/10/28 02:26:52;;;;;;;4.07;1.00;;;11.80;99.90;;;;;;5008733;28;20046;-80
2023/10/28 02:29:19;;;;;;;1.60;0.60;;;11.80;99.90;;;;;;5009378;28;20054;-81
2023/10/28 02:31:46;;;;;;;3.58;0.80;;;11.80;99.90;;;;;;5011078;28;20505;-82
2023/10/28 02:34:13;;;;;;;3.33;0.65;;;11.80;99.90;;;;;;5007827;28;20495;-82
2023/10/28 02:36:40;;;;;;;2.78;1.05;;;11.70;99.90;;;;;;5006906;28;20073;-83
2023/10/28 02:39:06;;;;;;;5.28;1.10;;;11.80;99.90;;;;;;5005893;28;20054;-81
2023/10/28 02:41:34;;;;;;;2.50;0.80;;;11.80;99.90;;;;;;5003741;28;20557;-81
2023/10/28 02:44:03;;;;;;;3.33;0.68;;;11.80;99.90;;;;;;5009538;28;20050;-80
2023/10/28 02:46:29;;;;;;;3.80;0.68;;;11.80;99.90;;;;;;5007817;28;20461;-82
2023/10/28 02:48:56;;;;;;;2.28;0.75;;;11.80;99.90;;;;;;5005083;28;20426;-82
2023/10/28 02:51:23;;;;;;;1.40;0.57;;;11.80;99.90;;;;;;5005514;28;20081;-82
2023/10/28 02:53:50;;;;;;;4.03;0.80;;;11.80;99.90;;;;;;5007333;28;20403;-80
2023/10/28 02:56:17;;;;;;;1.38;0.70;;;11.80;99.90;;;;;;5012549;28;20120;-82
2023/10/28 02:58:44;;;;;;;2.10;0.60;;;11.80;99.90;;;;;;5013920;28;20050;-82
2023/10/28 03:01:12;;;;;;;2.15;0.50;;;11.80;99.90;;;;;;5011267;28;20046;-82
2023/10/28 03:03:41;;;;;;;2.83;0.60;;;11.70;99.90;;;;;;5003914;28;20049;-83
2023/10/28 03:06:08;;;;;;;1.48;0.68;;;11.70;99.90;;;;;;5008453;28;20081;-82
2023/10/28 03:08:35;;;;;;;2.45;0.63;;;11.60;99.90;;;;;;5008672;28;20415;-80
2023/10/28 03:11:02;;;;;;;3.10;0.70;;;11.60;99.90;;;;;;5015342;28;20042;-82
2023/10/28 03:13:29;;;;;;;3.33;0.70;;;11.60;99.90;;;;;;5005846;28;20145;-82
2023/10/28 03:15:56;;;;;;;5.30;0.90;;;11.60;99.90;;;;;;5008740;28;20110;-82
2023/10/28 03:18:23;;;;;;;1.60;0.80;;;11.50;99.90;;;;;;5007428;28;20124;-82
2023/10/28 03:20:50;;;;;;;1.80;0.77;;;11.50;99.90;;;;;;5007249;28;20105;-82
2023/10/28 03:23:17;;;;;;;6.30;0.70;;;11.60;99.90;;;;;;5008421;28;20046;-82
2023/10/28 03:25:44;;;;;;;3.90;0.90;;;11.60;99.90;;;;;;5012329;28;20046;-80
2023/10/28 03:28:11;;;;;;;1.13;0.70;;;11.60;99.90;;;;;;5006774;28;20046;-81
2023/10/28 03:30:38;;;;;;;4.82;0.90;;;11.60;99.90;;;;;;5006588;28;20100;-82
2023/10/28 03:33:04;;;;;;;1.30;0.65;;;11.60;99.90;;;;;;5007923;28;20041;-82
2023/10/28 03:35:31;;;;;;;3.78;0.90;;;11.60;99.90;;;;;;5000488;28;20046;-81
2023/10/28 03:37:58;;;;;;;2.95;1.08;;;11.60;99.90;;;;;;5008934;28;20038;-81
2023/10/28 03:40:25;;;;;;;3.35;0.90;;;11.50;99.90;;;;;;5010242;28;20506;-82
2023/10/28 03:42:51;;;;;;;5.30;0.77;;;11.50;99.90;;;;;;5007990;28;20092;-81
2023/10/28 03:45:18;;;;;;;3.92;0.90;;;11.50;99.90;;;;;;5003852;28;20077;-81
2023/10/28 03:47:45;;;;;;;3.25;0.68;;;11.50;99.90;;;;;;5008777;28;20046;-81
2023/10/28 03:50:12;;;;;;;1.30;0.55;;;11.40;99.90;;;;;;5003387;28;20080;-81
2023/10/28 03:52:38;;;;;;;7.28;0.98;;;11.40;99.90;;;;;;5011036;28;20053;-82
2023/10/28 03:55:06;;;;;;;3.28;0.63;;;11.40;99.90;;;;;;5016886;28;20101;-81
2023/10/28 03:57:33;;;;;;;5.90;0.80;;;11.40;99.90;;;;;;5004890;28;20116;-80
2023/10/28 03:59:59;;;;;;;3.25;0.77;;;11.40;99.90;;;;;;5007326;28;20074;-82
2023/10/28 04:02:27;;;;;;;2.58;0.90;;;11.40;99.90;;;;;;5006199;28;20142;-80
2023/10/28 04:04:55;;;;;;;4.07;0.70;;;11.50;99.90;;;;;;5001179;28;20050;-81
2023/10/28 04:07:21;;;;;;;1.40;0.52;;;11.50;99.90;;;;;;5010506;28;20506;-81
2023/10/28 04:09:48;;;;;;;1.30;0.55;;;11.50;99.90;;;;;;5011476;28;20065;-82
2023/10/28 04:12:15;;;;;;;2.13;0.60;;;11.60;99.90;;;;;;5010846;28;20321;-80
2023/10/28 04:14:43;;;;;;;2.47;0.80;;;11.60;99.90;;;;;;5002363;28;20046;-82
2023/10/28 04:17:10;;;;;;;1.95;0.70;;;11.70;99.90;;;;;;5006490;28;20042;-82
2023/10/28 04:19:37;;;;;;;2.60;0.68;;;11.70;99.90;;;;;;4999765;28;20050;-81
2023/10/28 04:22:04;;;;;;;4.05;0.75;;;11.70;99.90;;;;;;5010373;28;20046;-82
2023/10/28 04:24:31;;;;;;;4.30;0.85;;;11.70;99.90;;;;;;5009319;28;20466;-81
2023/10/28 04:26:59;;;;;;;2.80;0.70;;;11.70;99.90;;;;;;5004954;28;20058;-82
2023/10/28 04:29:26;;;;;;;4.05;0.93;;;11.80;99.90;;;;;;5001762;28;20085;-80
2023/10/28 04:31:52;;;;;;;4.65;0.73;;;11.80;99.90;;;;;;5006679;28;20046;-82
2023/10/28 04:34:19;;;;;;;2.45;0.52;;;11.80;99.90;;;;;;4999957;28;20065;-81
2023/10/28 04:36:46;;;;;;;4.07;0.65;;;11.90;99.90;;;;;;5011379;28;20046;-81
2023/10/28 04:39:13;;;;;;;5.05;0.70;;;11.90;99.90;;;;;;5011085;28;20050;-82
2023/10/28 04:41:39;;;;;;;1.45;0.63;;;11.90;99.90;;;;;;5002781;28;20082;-82
2023/10/28 04:44:06;;;;;;;1.35;0.60;;;11.90;99.90;;;;;;5002256;28;20117;-82
2023/10/28 04:46:33;;;;;;;3.08;0.52;;;11.90;99.90;;;;;;5004674;28;20561;-82
2023/10/28 04:49:00;;;;;;;0.98;0.60;;;11.90;99.90;;;;;;5001431;28;20050;-82
2023/10/28 04:51:27;;;;;;;1.95;0.70;;;12.00;99.90;;;;;;5007671;28;20057;-83
2023/10/28 04:53:53;;;;;;;3.78;1.27;;;12.00;99.90;;;;;;5009691;28;20064;-83
2023/10/28 04:56:20;;;;;;;5.75;1.15;;;12.00;99.90;;;;;;5008639;28;20046;-83
2023/10/28 04:58:47;;;;;;;3.60;0.90;;;12.00;99.90;;;;;;5002450;28;20050;-82
2023/10/28 05:01:14;;;;;;;2.20;0.82;;;12.00;99.90;;;;;;5010718;28;20042;-82
2023/10/28 05:03:40;;;;;;;3.85;0.80;;;12.00;99.90;;;;;;5009245;28;20050;-82
2023/10/28 05:06:09;;;;;;;2.38;0.60;;;12.10;99.90;;;;;;5014590;28;20054;-82
2023/10/28 05:08:36;;;;;;;1.30;0.70;;;12.10;99.90;;;;;;5008216;28;20042;-82
2023/10/28 05:11:04;;;;;;;2.90;0.82;;;12.00;99.90;;;;;;5010699;28;20050;-81
2023/10/28 05:13:31;;;;;;;3.10;0.93;;;12.10;99.90;;;;;;5004161;28;20425;-82
2023/10/28 05:15:58;;;;;;;3.95;0.98;;;12.10;99.90;;;;;;5012531;28;20077;-82
2023/10/28 05:18:26;;;;;;;3.25;0.90;;;12.10;99.90;;;;;;5008763;28;20121;-82
2023/10/28 05:20:53;;;;;;;2.92;0.90;;;12.10;99.90;;;;;;5014150;28;20078;-82
2023/10/28 05:23:20;;;;;;;3.58;0.55;;;12.10;99.90;;;;;;5009907;28;20042;-81
2023/10/28 05:25:46;;;;;;;2.58;0.73;;;12.10;99.90;;;;;;5013121;28;20050;-82
2023/10/28 05:28:13;;;;;;;5.45;0.95;;;12.10;99.90;;;;;;5006001;28;20161;-81
2023/10/28 05:30:40;;;;;;;1.92;0.75;;;12.10;99.90;;;;;;5015021;28;20078;-81
2023/10/28 05:33:07;;;;;;;1.95;0.60;;;12.10;99.90;;;;;;5012383;28;20046;-80
2023/10/28 05:35:33;;;;;;;5.45;0.82;;;12.10;99.90;;;;;;5011071;28;20532;-81
2023/10/28 05:38:00;;;;;;;4.28;1.40;;;12.10;99.90;;;;;;5009304;28;20050;-83
2023/10/28 05:40:27;;;;;;;4.18;0.85;;;12.10;99.90;;;;;;5009432;28;20038;-80
2023/10/28 05:42:54;;;;;;;2.13;0.60;;;12.10;99.90;;;;;;5004330;28;20042;-82
2023/10/28 05:45:21;;;;;;;3.25;0.60;;;12.10;99.90;;;;;;5009406;28;20087;-82
2023/10/28 05:47:48;;;;;;;5.05;0.90;;;12.10;99.90;;;;;;5016249;28;20046;-81
2023/10/28 05:50:15;;;;;;;3.78;0.95;;;12.10;99.90;;;;;;5019954;28;20105;-83
2023/10/28 05:52:42;;;;;;;1.63;0.77;;;12.10;99.90;;;;;;5010710;28;20097;-82
2023/10/28 05:55:12;;;;;;;4.22;1.00;;;12.10;99.90;;;;;;5011962;28;20121;-80
2023/10/28 05:57:40;;;;;;;3.80;0.82;;;12.10;99.90;;;;;;5003648;28;20046;-81
2023/10/28 06:00:10;;;;;;;3.80;0.73;;;12.10;99.90;;;;;;5015215;28;20046;-82
2023/10/28 06:02:37;;;;;;;2.42;1.00;;;12.10;99.90;;;;;;5014758;28;20050;-82
2023/10/28 06:05:08;;;;;;;4.43;1.13;;;12.20;99.90;;;;;;5011931;28;20057;-79
2023/10/28 06:07:35;;;;;;;3.17;0.85;;;12.20;99.90;;;;;;5006588;28;20046;-82
2023/10/28 06:10:04;;;;;;;8.75;0.75;;;12.20;99.90;;;;;;5013150;28;20046;-81
2023/10/28 06:12:31;;;;;;;4.10;0.70;;;12.20;99.90;;;;;;5003138;28;20494;-81
2023/10/28 06:14:58;;;;;;;4.03;0.90;;;12.20;99.90;;;;;;5012402;28;20101;-82
2023/10/28 06:17:24;;;;;;;2.25;0.77;;;12.20;99.90;;;;;;5015715;28;20473;-82
2023/10/28 06:19:51;;;;;;;4.32;0.80;;;12.20;99.90;;;;;;5006103;28;20065;-82
2023/10/28 06:22:18;;;;;;;5.28;0.85;;;12.20;99.90;;;;;;5006542;28;20405;-82
2023/10/28 06:24:45;;;;;;;3.22;0.80;;;12.20;99.90;;;;;;5010732;28;20043;-83
2023/10/28 06:27:12;;;;;;;4.10;1.45;;;12.20;99.90;;;;;;5006334;28;20050;-81
2023/10/28 06:29:38;;;;;;;1.38;0.80;;;12.20;99.90;;;;;;5009827;28;20128;-83
2023/10/28 06:32:09;;;;;;;4.03;0.70;;;12.30;99.90;;;;;;5011680;28;20524;-81
2023/10/28 06:34:37;;;;;;;3.63;1.08;;;12.30;99.90;;;;;;5009586;28;20054;-83
2023/10/28 06:37:04;;;;;;;4.65;0.88;;;12.30;99.90;;;;;;5005214;28;20051;-82
2023/10/28 06:39:35;;;;;;;4.95;0.80;;;12.30;99.90;;;;;;5008659;28;20046;-82
2023/10/28 06:42:02;;;;;;;3.40;1.15;;;12.40;99.90;;;;;;5005695;28;20120;-82
2023/10/28 06:44:28;;;;;;;4.47;0.90;;;12.40;99.90;;;;;;5009972;28;20108;-83
2023/10/28 06:46:55;;;;;;;4.50;1.35;;;12.40;99.90;;;;;;5012850;28;20505;-83
2023/10/28 06:49:22;;;;;;;3.78;0.70;;;12.40;99.90;;;;;;5018006;28;20128;-83
2023/10/28 06:51:50;;;;;;;4.95;1.23;;;12.40;99.90;;;;;;5007402;28;20101;-82
2023/10/28 06:54:18;;;;;;;1.77;0.68;;;12.40;99.90;;;;;;5012932;28;20104;-82
2023/10/28 06:56:45;;;;;;;1.33;0.50;;;12.50;99.90;;;;;;5006418;28;20050;-82
2023/10/28 06:59:12;;;;;;;5.00;0.77;;;12.50;99.90;;;;;;5006545;28;20046;-83
2023/10/28 07:01:39;;;;;;;3.63;0.77;;;12.50;99.90;;;;;;5011259;28;20050;-82
2023/10/28 07:04:06;;;;;;;4.03;0.77;;;12.50;99.90;;;;;;5012406;28;20101;-81
2023/10/28 07:06:33;;;;;;;4.20;0.70;;;12.50;99.90;;;;;;5008133;28;20078;-81
2023/10/28 07:08:59;;;;;;;5.85;0.93;;;12.60;99.90;;;;;;5008174;28;20053;-82
2023/10/28 07:11:26;;;;;;;4.82;0.90;;;12.60;99.90;;;;;;5006340;28;20070;-80
2023/10/28 07:13:53;;;;;;;3.42;1.00;;;12.60;99.90;;;;;;5012736;28;20042;-82
2023/10/28 07:16:20;;;;;;;2.80;0.85;;;12.60;99.90;;;;;;5014663;28;20518;-82
2023/10/28 07:18:48;;;;;;;5.07;1.05;;;12.70;99.90;;;;;;5010959;28;20048;-82
2023/10/28 07:21:15;;;;;;;4.70;0.93;;;12.70;99.90;;;;;;5004685;28;20124;-82
2023/10/28 07:23:42;;;;;;;5.38;0.90;;;12.80;99.90;;;;;;5007064;28;20054;-82
2023/10/28 07:26:10;;;;;;;2.20;0.80;;;12.80;99.90;;;;;;5006936;28;20062;-81
2023/10/28 07:28:37;;;;;;;2.63;0.70;;;12.90;99.90;;;;;;5020559;28;20498;-82
2023/10/28 07:31:05;;;;;;;5.20;0.98;;;12.90;99.90;;;;;;5015706;28;20058;-83
2023/10/28 07:33:33;;;;;;;4.93;1.30;;;13.00;99.90;;;;;;5010459;28;20050;-83
2023/10/28 07:36:03;;;;;;;8.63;1.15;;;13.00;99.90;;;;;;5006279;28;20077;-81
2023/10/28 07:38:30;;;;;;;2.75;0.95;;;13.10;99.90;;;;;;5016639;28;20080;-84
2023/10/28 07:40:57;;;;;;;5.28;1.15;;;13.10;99.90;;;;;;5014408;28;20053;-83
2023/10/28 07:43:24;;;;;;;3.35;0.82;;;13.10;99.90;;;;;;5022096;28;20049;-80
2023/10/28 07:45:51;;;;;;;4.55;1.73;;;13.20;99.90;;;;;;5010712;28;20088;-83
2023/10/28 07:48:18;;;;;;;5.68;1.77;;;13.20;99.90;;;;;;5013043;28;20134;-82
2023/10/28 07:50:45;;;;;;;4.30;1.40;;;13.30;99.90;;;;;;5006471;28;20485;-83
2023/10/28 07:53:11;;;;;;;5.20;1.30;;;13.30;99.90;;;;;;5010353;28;20049;-84
2023/10/28 07:55:38;;;;;;;3.40;1.17;;;13.40;99.90;;;;;;5010903;28;20081;-83
2023/10/28 07:58:05;;;;;;;4.60;1.40;;;13.40;99.90;;;;;;5012671;28;20050;-83
2023/10/28 08:00:34;;;;;;;4.85;1.30;;;13.50;99.90;;;;;;5007583;28;20041;-84
2023/10/28 08:03:00;;;;;;;6.90;1.98;;;13.50;99.90;;;;;;5009404;28;20046;-83
2023/10/28 08:05:28;;;;;;;7.30;1.50;;;13.60;99.90;;;;;;5004292;28;20058;-83
2023/10/28 08:07:55;;;;;;;6.72;1.75;;;13.60;99.90;;;;;;5005634;28;20107;-83
2023/10/28 08:10:22;;;;;;;4.75;1.20;;;13.70;99.90;;;;;;5011881;28;20054;-83
2023/10/28 08:12:56;;;;;;;4.50;1.17;;;13.80;99.90;;;;;;5011201;28;20046;-83
2023/10/28 08:15:29;;;;;;;6.80;0.90;;;13.80;99.90;;;;;;5006402;28;20524;-84
2023/10/28 08:17:56;;;;;;;6.60;1.08;;;13.90;99.90;;;;;;5007720;28;20487;-83
2023/10/28 08:20:23;;;;;;;3.53;1.10;;;14.00;99.90;;;;;;5004960;28;20081;-83
2023/10/28 08:22:50;;;;;;;4.55;1.23;;;14.00;99.90;;;;;;5004751;28;20050;-83
2023/10/28 08:25:17;;;;;;;3.65;1.10;;;14.10;99.90;;;;;;5009985;28;20053;-83
2023/10/28 08:27:44;;;;;;;2.35;1.00;;;14.10;99.90;;;;;;5010150;28;20433;-83
2023/10/28 08:30:17;;;;;;;3.58;0.90;;;14.10;99.90;;;;;;5004252;28;20054;-84
2023/10/28 08:32:44;;;;;;;3.92;1.55;;;14.20;99.90;;;;;;5010277;28;20057;-82
2023/10/28 08:35:11;;;;;;;4.07;0.90;;;14.20;99.90;;;;;;5002389;28;20559;-83
2023/10/28 08:37:38;;;;;;;2.80;1.40;;;14.20;99.90;;;;;;5007105;28;20046;-83
2023/10/28 08:40:08;;;;;;;5.00;1.33;;;14.20;99.90;;;;;;5014341;28;20049;-83
2023/10/28 08:42:35;;;;;;;5.20;1.17;;;14.30;99.90;;;;;;5015326;28;20045;-83
2023/10/28 08:45:06;;;;;;;4.20;0.90;;;14.30;99.90;;;;;;5008892;28;20054;-82
2023/10/28 08:47:38;;;;;;;4.38;1.17;;;14.40;99.90;;;;;;5012690;28;20049;-81
2023/10/28 08:50:07;;;;;;;3.33;1.02;;;14.40;99.90;;;;;;5011852;28;20054;-83
2023/10/28 08:52:37;;;;;;;4.18;1.10;;;14.50;99.90;;;;;;5014581;28;20057;-82
2023/10/28 08:55:04;;;;;;;4.32;1.20;;;14.60;99.90;;;;;;5014630;28;20614;-83
2023/10/28 08:57:34;;;;;;;8.02;1.20;;;14.60;99.90;;;;;;5010335;28;20046;-81
2023/10/28 09:00:07;;;;;;;3.55;0.82;;;14.60;99.90;;;;;;5007317;28;20049;-83
2023/10/28 09:02:35;;;;;;;3.10;1.00;;;14.60;99.90;;;;;;5013478;28;20131;-83
2023/10/28 09:05:03;;;;;;;4.40;1.10;;;14.60;99.90;;;;;;5018429;28;20045;-83
2023/10/28 09:07:30;;;;;;;5.20;1.27;;;14.60;99.90;;;;;;5011820;28;20053;-83
2023/10/28 09:09:58;;;;;;;4.72;1.50;;;14.70;99.90;;;;;;5014534;28;20050;-83
2023/10/28 09:12:25;;;;;;;5.07;0.93;;;14.80;99.90;;;;;;5016244;28;20050;-83
2023/10/28 09:14:52;;;;;;;3.58;1.35;;;14.80;99.90;;;;;;5012825;28;20057;-83
2023/10/28 09:17:20;;;;;;;2.83;1.00;;;14.90;99.90;;;;;;5012141;28;20049;-83
2023/10/28 09:19:47;;;;;;;8.48;1.20;;;15.00;99.90;;;;;;5007942;28;20490;-83
2023/10/28 09:22:14;;;;;;;2.72;1.25;;;15.00;99.90;;;;;;5014307;28;20058;-83
2023/10/28 09:24:46;;;;;;;3.42;0.90;;;15.00;99.90;;;;;;5012671;28;20052;-81
2023/10/28 09:27:15;;;;;;;9.07;1.50;;;14.90;99.90;;;;;;5013362;28;20046;-83
2023/10/28 09:29:42;;;;;;;5.45;1.75;;;14.90;99.90;;;;;;5007536;28;20046;-83
2023/10/28 09:32:09;;;;;;;5.22;1.30;;;14.80;99.90;;;;;;5012941;28;20046;-82
2023/10/28 09:34:38;;;;;;;3.45;1.10;;;14.80;99.90;;;;;;5016869;28;20108;-82
2023/10/28 09:37:09;;;;;;;7.13;1.38;;;14.80;99.90;;;;;;5020741;28;20050;-83
2023/10/28 09:39:36;;;;;;;3.92;1.00;;;14.80;99.90;;;;;;5012996;28;20100;-83
2023/10/28 09:42:04;;;;;;;4.60;1.45;;;14.80;99.90;;;;;;5015238;28;20046;-84
2023/10/28 09:44:34;;;;;;;3.60;1.23;;;14.80;99.90;;;;;;5012444;28;20077;-81
2023/10/28 09:47:05;;;;;;;2.30;0.75;;;14.80;99.90;;;;;;5011262;28;20422;-81
2023/10/28 09:49:36;;;;;;;7.50;1.80;;;14.80;99.90;;;;;;5018104;28;20552;-83
2023/10/28 09:52:07;;;;;;;4.10;1.08;;;14.80;99.90;;;;;;5018844;28;20191;-81
2023/10/28 09:54:37;;;;;;;6.82;2.03;;;14.80;99.90;;;;;;5012724;28;20125;-83
2023/10/28 09:57:07;;;;;;;7.57;1.80;;;14.80;99.90;;;;;;5016042;28;20081;-82
2023/10/28 09:59:37;;;;;;;4.93;1.38;;;14.80;99.90;;;;;;5011907;28;20488;-82
2023/10/28 10:02:35;;;;;;;7.13;1.58;;;14.70;99.90;;;;;;5005921;28;20585;-84
2023/10/28 10:05:37;;;;;;;6.18;1.55;;;14.70;99.90;;;;;;5013683;28;20050;-83
2023/10/28 10:08:03;;;;;;;5.60;1.30;;;14.70;99.90;;;;;;4986774;28;20146;-82
2023/10/28 10:10:44;;;;;;;4.70;1.42;;;14.80;99.90;;;;;;5011724;28;20046;-83
2023/10/28 10:13:11;;;;;;;;;;;14.80;99.90;;;;;;5006892;28;20057;-83
2023/10/28 10:16:02;;;;;;;5.40;1.48;;;14.90;99.90;;;;;;5016598;28;19928;-83
2023/10/28 10:18:38;;;;;;;7.80;1.30;;;15.00;99.90;;;;;;5010469;28;20046;-82
2023/10/28 10:21:12;;;;;;;4.65;1.40;;;15.10;99.90;;;;;;5010680;28;20046;-82
2023/10/28 10:23:44;;;;;;;8.73;1.33;;;15.20;99.90;;;;;;5004134;28;20053;-82
2023/10/28 10:26:25;;;;;;;5.45;1.50;;;15.30;99.90;;;;;;5010306;28;20054;-84
2023/10/28 10:28:58;;;;;;;6.60;1.52;;;15.30;99.90;;;;;;5014181;28;20093;-84
2023/10/28 10:31:30;;;;;;;6.35;1.83;;;15.30;99.90;;;;;;5015812;28;20050;-84
2023/10/28 10:34:07;;;;;;;3.53;1.08;;;15.40;99.90;;;;;;5016603;28;20041;-83
2023/10/28 10:36:40;;;;;;;4.50;1.60;;;15.40;99.90;;;;;;5015435;28;20057;-83
2023/10/28 10:39:15;;;;;;;5.75;1.25;;;15.40;99.90;;;;;;5010651;28;20052;-84
2023/10/28 10:41:46;;;;;;;8.55;1.80;;;15.40;99.90;;;;;;5012014;28;20517;-83
2023/10/28 10:44:23;;;;;;;8.07;1.60;;;15.40;99.90;;;;;;5013291;28;20096;-84
2023/10/28 10:46:50;;;;;;;6.65;1.75;;;15.40;99.90;;;;;;5015247;28;20109;-83
2023/10/28 10:49:17;;;;;;;6.97;1.63;;;15.40;99.90;;;;;;5010460;28;20053;-83
2023/10/28 10:51:46;;;;;;;11.48;2.05;;;15.30;99.90;;;;;;5009020;28;20057;-82
2023/10/28 10:54:16;;;;;;;5.57;1.50;;;15.30;99.90;;;;;;5002335;28;20129;-81
2023/10/28 10:56:44;;;;;;;7.00;1.63;;;15.30;99.90;;;;;;5010840;28;20049;-83
2023/10/28 10:59:11;;;;;;;5.30;1.70;;;15.30;99.90;;;;;;5001926;28;20089;-83
2023/10/28 11:01:38;;;;;;;5.75;1.65;;;15.40;99.90;;;;;;5020793;28;20049;-84
2023/10/28 11:04:06;;;;;;;4.97;2.00;;;15.40;99.90;;;;;;5014375;28;20133;-83
2023/10/28 11:06:36;;;;;;;10.55;1.80;;;15.50;99.90;;;;;;5010671;28;20046;-84
2023/10/28 11:09:04;;;;;;;7.30;1.63;;;15.60;99.90;;;;;;5003807;28;20104;-84
2023/10/28 11:11:35;;;;;;;6.80;1.88;;;15.70;99.90;;;;;;5007498;28;20055;-82
2023/10/28 11:14:04;;;;;;;8.30;1.70;;;15.80;99.90;;;;;;5002312;28;20116;-81
2023/10/28 11:16:32;;;;;;;8.23;1.55;;;15.80;99.90;;;;;;5007323;28;20129;-82
2023/10/28 11:19:04;;;;;;;6.20;2.05;;;15.80;99.90;;;;;;5005663;28;20046;-82
2023/10/28 11:21:31;;;;;;;5.95;1.67;;;15.80;99.90;;;;;;5005451;28;20543;-82
2023/10/28 11:24:01;;;;;;;9.32;1.35;;;15.80;99.90;;;;;;5010001;28;20482;-83
2023/10/28 11:26:28;;;;;;;4.70;1.38;;;15.80;99.90;;;;;;5010686;28;20418;-84
2023/10/28 11:28:59;;;;;;;8.57;1.50;;;15.70;99.90;;;;;;4999255;28;20058;-79
2023/10/28 11:31:31;;;;;;;4.55;1.35;;;15.70;99.90;;;;;;5010147;28;20050;-80
2023/10/28 11:33:59;;;;;;;5.65;1.13;;;15.70;99.90;;;;;;5013055;28;20050;-79
2023/10/28 11:36:27;;;;;;;4.47;1.40;;;15.70;99.90;;;;;;5004252;28;20509;-80
2023/10/28 11:38:57;;;;;;;6.15;1.00;;;15.60;99.90;;;;;;4998508;28;20035;-80
2023/10/28 11:41:24;;;;;;;;;;;15.60;99.90;;;;;;5009548;28;20494;-81
2023/10/28 11:43:52;;;;;;;5.47;1.33;;;15.60;99.90;;;;;;5004324;28;19921;-80
2023/10/28 11:46:20;;;;;;;6.00;1.65;;;15.60;99.90;;;;;;5007745;28;20081;-81
2023/10/28 11:48:47;;;;;;;4.85;1.40;;;15.60;99.90;;;;;;5008170;28;20045;-79
2023/10/28 11:51:14;;;;;;;7.80;3.00;;;15.60;99.90;;;;;;5010230;28;20051;-80
2023/10/28 11:53:47;;;;;;;5.47;2.17;;;15.70;99.90;;;;;;5001872;28;20084;-80
2023/10/28 11:56:19;;;;;;;5.05;2.65;;;15.70;99.90;;;;;;5006778;28;20054;-80
2023/10/28 11:58:47;;;;;;;4.05;1.58;;;15.80;99.90;;;;;;5007542;28;20053;-80
2023/10/28 12:01:14;;;;;;;5.18;1.70;;;15.80;99.90;;;;;;5007293;28;20050;-80
2023/10/28 12:03:41;;;;;;;10.25;1.73;;;15.90;99.90;;;;;;5006662;28;20494;-80
2023/10/28 12:06:08;;;;;;;5.60;1.70;;;15.90;99.90;;;;;;5006717;28;20593;-80
2023/10/28 12:08:57;;;;;;;7.63;2.20;;;16.00;99.90;;;;;;4999882;28;20438;-80
2023/10/28 12:11:25;;;;;;;9.20;1.67;;;16.10;99.90;;;;;;5008184;28;20057;-80
2023/10/28 12:13:52;;;;;;;4.43;1.40;;;16.10;99.90;;;;;;5011096;28;20049;-81
2023/10/28 12:16:19;;;;;;;5.05;1.80;;;16.20;99.90;;;;;;5005465;28;20529;-80
2023/10/28 12:18:46;;;;;;;4.03;1.50;;;16.20;99.90;;;;;;5002923;28;20045;-80
2023/10/28 12:21:15;;;;;;;8.43;1.92;;;16.20;99.90;;;;;;5007713;28;20077;-81
2023/10/28 12:23:42;;;;;;;6.82;1.73;;;16.20;99.90;;;;;;5001161;28;20050;-80
2023/10/28 12:26:10;;;;;;;6.25;1.38;;;16.20;99.90;;;;;;5007039;28;20499;-80
2023/10/28 12:28:37;;;;;;;11.57;2.30;;;16.20;99.90;;;;;;5010453;28;20062;-80
2023/10/28 12:31:04;;;;;;;9.48;2.88;;;16.20;99.90;;;;;;5006482;28;20062;-80
2023/10/28 12:33:31;;;;;;;7.82;2.00;;;16.10;99.90;;;;;;5005796;28;20050;-80
2023/10/28 12:36:00;;;;;;;8.23;2.17;;;16.10;99.90;;;;;;5005416;28;20050;-80
2023/10/28 12:38:27;;;;;;;11.30;3.50;;;16.10;99.90;;;;;;5000138;28;20093;-80
2023/10/28 12:40:53;;;;;;;6.50;2.35;;;16.20;99.90;;;;;;5006267;28;20569;-80
2023/10/28 12:43:20;;;;;;;5.68;2.45;;;16.20;99.90;;;;;;5008444;28;20046;-80
2023/10/28 12:45:47;;;;;;;7.45;1.63;;;16.20;99.90;;;;;;5007096;28;20129;-80
2023/10/28 12:48:14;;;;;;;8.05;3.10;;;16.30;99.90;;;;;;5002061;28;20093;-79
2023/10/28 12:50:41;;;;;;;10.15;3.90;;;16.30;99.90;;;;;;5006999;28;21290;-81
2023/10/28 12:53:08;;;;;;;4.85;2.28;;;16.40;99.90;;;;;;4998388;28;20050;-78